Time;durP1;ratioP1;P1;durP2;ratioP2;P2;SDS_P1;SDS_P2;PMS_P1;PMS_P2;Temp;Humidity;BMP_temperature;BMP_pressure;BME280_temperature;BME280_humidity;BME280_pressure;Samples;Min_cycle;Max_cycle;Signal;HPM_P1;HPM_P2
2023/11/11 00:00:09;;;;;;;1.40;1.27;;;3.50;99.90;;;;;;5095601;28;20043;-41
2023/11/11 00:02:35;;;;;;;1.63;1.27;;;3.50;99.90;;;;;;5080978;28;20529;-41
2023/11/11 00:05:02;;;;;;;1.05;1.05;;;3.60;99.90;;;;;;5080363;28;20066;-40
2023/11/11 00:07:27;;;;;;;2.83;1.45;;;3.60;99.90;;;;;;5072249;28;20060;-41
2023/11/11 00:09:53;;;;;;;1.15;1.15;;;3.60;99.90;;;;;;5082285;28;20082;-39
2023/11/11 00:12:20;;;;;;;2.20;0.93;;;3.50;99.90;;;;;;5083447;28;20032;-37
2023/11/11 00:14:45;;;;;;;1.80;1.10;;;3.50;99.90;;;;;;5063044;28;20119;-38
2023/11/11 00:17:11;;;;;;;1.58;1.20;;;3.50;99.90;;;;;;5080705;28;20100;-41
2023/11/11 00:19:38;;;;;;;1.00;1.00;;;3.50;99.90;;;;;;5084403;28;20592;-35
2023/11/11 00:22:04;;;;;;;1.00;1.00;;;3.80;99.90;;;;;;5082253;28;20439;-41
2023/11/11 00:24:30;;;;;;;1.23;1.13;;;4.00;99.90;;;;;;5086853;28;20043;-38
2023/11/11 00:26:56;;;;;;;3.40;2.55;;;4.00;99.90;;;;;;5083217;28;20035;-42
2023/11/11 00:29:22;;;;;;;1.98;1.80;;;4.10;99.90;;;;;;5080785;28;20121;-38
2023/11/11 00:31:49;;;;;;;2.30;1.10;;;4.10;99.90;;;;;;5083703;28;20028;-40
2023/11/11 00:34:20;;;;;;;0.95;0.95;;;4.30;99.90;;;;;;5095612;27;20052;-40
2023/11/11 00:36:48;;;;;;;0.70;0.70;;;4.40;99.90;;;;;;5116597;27;20051;-40
2023/11/11 00:39:14;;;;;;;1.17;1.15;;;4.50;99.90;;;;;;5117726;27;20547;-41
2023/11/11 00:41:41;;;;;;;0.90;0.90;;;4.70;99.90;;;;;;5087126;28;20032;-33
2023/11/11 00:44:09;;;;;;;1.00;1.00;;;4.80;99.90;;;;;;5075202;28;20028;-36
2023/11/11 00:46:39;;;;;;;0.90;0.90;;;4.90;99.90;;;;;;5086260;28;20032;-41
2023/11/11 00:49:07;;;;;;;1.00;1.00;;;4.90;99.90;;;;;;5119996;27;20025;-41
2023/11/11 00:51:39;;;;;;;1.08;1.08;;;5.00;99.90;;;;;;5115034;27;20028;-30
2023/11/11 00:54:09;;;;;;;1.33;1.23;;;5.20;99.90;;;;;;5087332;28;20505;-29
2023/11/11 00:56:36;;;;;;;1.13;1.13;;;5.20;99.90;;;;;;5085790;28;20020;-32
2023/11/11 00:59:05;;;;;;;1.13;0.93;;;5.20;99.90;;;;;;5086128;28;20028;-31
2023/11/11 01:01:33;;;;;;;3.55;1.30;;;5.40;99.90;;;;;;5089980;27;20028;-31
2023/11/11 01:04:00;;;;;;;1.10;1.10;;;5.40;99.90;;;;;;5086308;28;20024;-32
2023/11/11 01:06:25;;;;;;;3.65;1.40;;;5.40;99.90;;;;;;5090776;28;20039;-31
2023/11/11 01:08:51;;;;;;;1.08;1.08;;;5.40;99.90;;;;;;5082391;28;20070;-30
2023/11/11 01:11:17;;;;;;;1.38;1.10;;;5.50;99.90;;;;;;5090213;28;20062;-31
2023/11/11 01:13:42;;;;;;;1.63;1.25;;;5.50;99.90;;;;;;5088206;28;20032;-30
2023/11/11 01:16:08;;;;;;;1.30;1.20;;;5.50;99.90;;;;;;5089210;28;20032;-31
2023/11/11 01:18:34;;;;;;;1.00;1.00;;;5.50;99.90;;;;;;5088133;28;20035;-30
2023/11/11 01:21:03;;;;;;;0.95;0.95;;;5.50;99.90;;;;;;5089233;28;20209;-30
2023/11/11 01:23:33;;;;;;;0.88;0.85;;;5.50;99.90;;;;;;5086098;28;20522;-30
2023/11/11 01:26:03;;;;;;;0.90;0.90;;;5.40;99.90;;;;;;5085822;28;20032;-30
2023/11/11 01:28:29;;;;;;;1.00;1.00;;;5.40;99.90;;;;;;5083511;28;20115;-30
2023/11/11 01:30:56;;;;;;;2.28;1.50;;;5.40;99.90;;;;;;5087598;28;20036;-30
2023/11/11 01:33:22;;;;;;;1.25;1.10;;;5.40;99.90;;;;;;5087612;28;20032;-31
2023/11/11 01:35:54;;;;;;;1.10;1.10;;;5.40;99.90;;;;;;5085280;28;20044;-31
2023/11/11 01:38:20;;;;;;;1.13;1.13;;;5.40;99.90;;;;;;5084967;28;20025;-30
2023/11/11 01:40:47;;;;;;;1.35;1.20;;;5.40;99.90;;;;;;5084684;28;20024;-33
2023/11/11 01:43:15;;;;;;;0.98;0.98;;;5.40;99.90;;;;;;5081554;28;20059;-32
2023/11/11 01:45:44;;;;;;;1.10;1.10;;;5.30;99.90;;;;;;5085408;28;20170;-33
2023/11/11 01:48:15;;;;;;;1.00;1.00;;;5.30;99.90;;;;;;5083726;28;20422;-31
2023/11/11 01:50:44;;;;;;;0.80;0.80;;;5.30;99.90;;;;;;5067941;28;20050;-33
2023/11/11 01:53:11;;;;;;;1.10;1.00;;;5.30;99.90;;;;;;5080647;28;20023;-29
2023/11/11 01:55:38;;;;;;;1.35;1.10;;;5.30;99.90;;;;;;5081631;28;20035;-33
2023/11/11 01:58:04;;;;;;;0.90;0.90;;;5.30;99.90;;;;;;5068943;28;20595;-30
2023/11/11 02:00:36;;;;;;;0.77;0.77;;;5.20;99.90;;;;;;5084710;28;20021;-39
2023/11/11 02:03:02;;;;;;;1.05;1.05;;;5.20;99.90;;;;;;5082924;28;20048;-39
2023/11/11 02:05:28;;;;;;;1.08;0.90;;;5.30;99.90;;;;;;5082970;28;20435;-40
2023/11/11 02:07:58;;;;;;;0.80;0.80;;;5.30;99.90;;;;;;5085496;28;20032;-40
2023/11/11 02:10:25;;;;;;;1.00;1.00;;;5.30;99.90;;;;;;5084427;28;20027;-37
2023/11/11 02:12:54;;;;;;;1.00;1.00;;;5.30;99.90;;;;;;5084404;28;20378;-39
2023/11/11 02:15:19;;;;;;;1.20;1.20;;;5.30;99.90;;;;;;5082331;28;20024;-40
2023/11/11 02:17:45;;;;;;;1.20;1.15;;;5.30;99.90;;;;;;5086653;28;20540;-40
2023/11/11 02:20:11;;;;;;;1.08;1.08;;;5.40;99.90;;;;;;5081581;28;20489;-39
2023/11/11 02:22:41;;;;;;;0.80;0.80;;;5.30;99.90;;;;;;5086192;28;20024;-39
2023/11/11 02:25:11;;;;;;;1.10;1.10;;;5.40;99.90;;;;;;5086383;28;20389;-40
2023/11/11 02:27:37;;;;;;;0.80;0.80;;;5.40;99.90;;;;;;5080223;28;20031;-37
2023/11/11 02:30:03;;;;;;;1.45;1.00;;;5.40;99.90;;;;;;5083657;28;20028;-39
2023/11/11 02:32:30;;;;;;;1.13;1.00;;;5.40;99.90;;;;;;5085946;27;20080;-32
2023/11/11 02:34:57;;;;;;;0.98;0.98;;;5.40;99.90;;;;;;5080227;28;20262;-33
2023/11/11 02:37:22;;;;;;;0.90;0.90;;;5.40;99.90;;;;;;5079930;28;20107;-34
2023/11/11 02:39:48;;;;;;;0.90;0.90;;;5.50;99.90;;;;;;5080068;28;20095;-32
2023/11/11 02:42:13;;;;;;;0.98;0.98;;;5.50;99.90;;;;;;5087739;28;20073;-32
2023/11/11 02:44:39;;;;;;;1.10;1.10;;;5.50;99.90;;;;;;5079534;28;20024;-36
2023/11/11 02:47:05;;;;;;;1.00;1.00;;;5.50;99.90;;;;;;5082290;28;20039;-32
2023/11/11 02:49:30;;;;;;;1.02;1.02;;;5.50;99.90;;;;;;5078964;28;20514;-33
2023/11/11 02:51:56;;;;;;;0.90;0.90;;;5.50;99.90;;;;;;5085598;28;20111;-32
2023/11/11 02:54:21;;;;;;;2.20;1.13;;;5.60;99.90;;;;;;5082944;28;20074;-33
2023/11/11 02:56:47;;;;;;;0.80;0.80;;;5.60;99.90;;;;;;5087128;28;20024;-35
2023/11/11 02:59:12;;;;;;;0.95;0.80;;;5.70;99.90;;;;;;5081663;28;20103;-33
2023/11/11 03:01:38;;;;;;;0.63;0.63;;;5.70;99.90;;;;;;5081162;27;20028;-33
2023/11/11 03:04:04;;;;;;;0.80;0.80;;;5.70;99.90;;;;;;5080098;28;20040;-32
2023/11/11 03:06:30;;;;;;;1.08;1.00;;;5.80;99.90;;;;;;5089112;28;20023;-33
2023/11/11 03:08:55;;;;;;;0.70;0.70;;;5.80;99.90;;;;;;5085537;28;20016;-32
2023/11/11 03:11:21;;;;;;;0.52;0.52;;;5.70;99.90;;;;;;5082029;28;20178;-32
2023/11/11 03:13:48;;;;;;;0.60;0.60;;;5.70;99.90;;;;;;5077625;28;20028;-33
2023/11/11 03:16:14;;;;;;;0.68;0.68;;;5.70;99.90;;;;;;5081038;28;20509;-34
2023/11/11 03:18:40;;;;;;;1.67;0.80;;;5.70;99.90;;;;;;5081498;28;20031;-34
2023/11/11 03:21:05;;;;;;;0.60;0.60;;;5.70;99.90;;;;;;5081217;28;20029;-32
2023/11/11 03:23:31;;;;;;;0.60;0.60;;;5.70;99.90;;;;;;5085337;28;20034;-33
2023/11/11 03:25:57;;;;;;;0.70;0.70;;;5.60;99.90;;;;;;5084005;28;20028;-32
2023/11/11 03:28:22;;;;;;;0.75;0.70;;;5.60;99.90;;;;;;5081833;28;20068;-34
2023/11/11 03:30:48;;;;;;;0.68;0.68;;;5.60;99.90;;;;;;5083053;27;20031;-32
2023/11/11 03:33:14;;;;;;;0.68;0.68;;;5.60;99.90;;;;;;5079393;28;20042;-33
2023/11/11 03:35:40;;;;;;;0.85;0.80;;;5.70;99.90;;;;;;5080967;28;20036;-35
2023/11/11 03:38:09;;;;;;;0.80;0.80;;;5.70;99.90;;;;;;5083976;28;20166;-33
2023/11/11 03:40:35;;;;;;;1.15;0.80;;;5.70;99.90;;;;;;5083143;28;20032;-40
2023/11/11 03:43:00;;;;;;;0.88;0.88;;;5.70;99.90;;;;;;5075562;28;20429;-38
2023/11/11 03:45:26;;;;;;;1.75;0.80;;;5.70;99.90;;;;;;5081355;28;20123;-41
2023/11/11 03:47:52;;;;;;;0.70;0.70;;;5.70;99.90;;;;;;5084998;28;20042;-39
2023/11/11 03:50:18;;;;;;;0.98;0.90;;;5.80;99.90;;;;;;5086155;28;20355;-41
2023/11/11 03:52:44;;;;;;;0.70;0.70;;;5.80;99.90;;;;;;5076782;28;20481;-40
2023/11/11 03:55:09;;;;;;;0.60;0.60;;;5.90;99.90;;;;;;5085767;28;20059;-41
2023/11/11 03:57:35;;;;;;;0.70;0.70;;;5.90;99.90;;;;;;5089052;28;20381;-41
2023/11/11 04:00:11;;;;;;;0.73;0.73;;;5.90;99.90;;;;;;5085564;28;20393;-41
2023/11/11 04:02:36;;;;;;;0.60;0.60;;;5.90;99.90;;;;;;5088464;28;20072;-37
2023/11/11 04:05:02;;;;;;;0.82;0.82;;;5.90;99.90;;;;;;5086564;28;20052;-41
2023/11/11 04:07:28;;;;;;;0.70;0.70;;;5.90;99.90;;;;;;5089244;28;20060;-36
2023/11/11 04:09:53;;;;;;;0.95;0.70;;;5.90;99.90;;;;;;5083968;28;20028;-41
2023/11/11 04:12:19;;;;;;;0.80;0.80;;;5.90;99.90;;;;;;5094709;28;20575;-41
2023/11/11 04:14:44;;;;;;;1.30;0.70;;;5.80;99.90;;;;;;5090696;28;20386;-36
2023/11/11 04:17:10;;;;;;;0.60;0.60;;;5.90;99.90;;;;;;5085664;28;20058;-39
2023/11/11 04:19:37;;;;;;;0.60;0.60;;;5.90;99.90;;;;;;5082557;28;20056;-36
2023/11/11 04:22:03;;;;;;;0.52;0.52;;;5.90;99.90;;;;;;5087911;28;20031;-30
2023/11/11 04:24:31;;;;;;;0.50;0.50;;;5.90;99.90;;;;;;5084468;28;20032;-30
2023/11/11 04:26:57;;;;;;;0.70;0.70;;;5.90;99.90;;;;;;5088930;28;20599;-30
2023/11/11 04:29:23;;;;;;;0.88;0.88;;;5.90;99.90;;;;;;5090864;28;20044;-31
2023/11/11 04:31:49;;;;;;;0.50;0.50;;;5.90;99.90;;;;;;5084730;28;20028;-31
2023/11/11 04:34:15;;;;;;;0.60;0.60;;;5.80;99.90;;;;;;5086176;28;20052;-31
2023/11/11 04:36:41;;;;;;;0.55;0.55;;;5.80;99.90;;;;;;5090679;28;20107;-34
2023/11/11 04:39:08;;;;;;;0.55;0.55;;;5.90;99.90;;;;;;5090068;28;20031;-31
2023/11/11 04:41:35;;;;;;;0.60;0.60;;;5.90;99.90;;;;;;5094747;28;20496;-31
2023/11/11 04:44:00;;;;;;;0.50;0.50;;;5.80;99.90;;;;;;5088919;28;20021;-32
2023/11/11 04:46:26;;;;;;;0.50;0.50;;;5.70;99.90;;;;;;5089189;28;20065;-30
2023/11/11 04:48:51;;;;;;;0.50;0.50;;;5.70;99.90;;;;;;5090439;28;20024;-30
2023/11/11 04:51:17;;;;;;;0.60;0.60;;;5.70;99.90;;;;;;5091860;28;20178;-31
2023/11/11 04:53:43;;;;;;;0.60;0.60;;;5.70;99.90;;;;;;5085479;28;20031;-33
2023/11/11 04:56:08;;;;;;;0.63;0.60;;;5.70;99.90;;;;;;5084513;28;20028;-30
2023/11/11 04:58:38;;;;;;;0.60;0.60;;;5.70;99.90;;;;;;5088752;28;20413;-31
2023/11/11 05:01:04;;;;;;;0.60;0.60;;;5.70;99.90;;;;;;5084917;28;20392;-30
2023/11/11 05:03:30;;;;;;;0.60;0.60;;;5.70;99.90;;;;;;5086934;28;20104;-30
2023/11/11 05:05:56;;;;;;;0.57;0.57;;;5.70;99.90;;;;;;5119390;27;20506;-32
2023/11/11 05:08:22;;;;;;;0.50;0.50;;;5.70;99.90;;;;;;5084403;28;20050;-31
2023/11/11 05:10:48;;;;;;;0.82;0.82;;;5.70;99.90;;;;;;5087955;28;20492;-31
2023/11/11 05:13:14;;;;;;;0.65;0.65;;;5.70;99.90;;;;;;5087904;28;20024;-30
2023/11/11 05:15:47;;;;;;;0.80;0.60;;;5.70;99.90;;;;;;5094782;28;20389;-33
2023/11/11 05:18:13;;;;;;;0.60;0.60;;;5.70;99.90;;;;;;5075252;28;20016;-30
2023/11/11 05:20:40;;;;;;;0.60;0.60;;;5.70;99.90;;;;;;5070741;28;20445;-31
2023/11/11 05:23:08;;;;;;;0.70;0.70;;;5.70;99.90;;;;;;5079175;28;20028;-30
2023/11/11 05:25:34;;;;;;;0.73;0.73;;;5.70;99.90;;;;;;5083368;28;20036;-30
2023/11/11 05:28:00;;;;;;;0.70;0.70;;;5.70;99.90;;;;;;5082264;28;20753;-32
2023/11/11 05:30:26;;;;;;;0.70;0.70;;;5.80;99.90;;;;;;5089025;27;20031;-30
2023/11/11 05:32:53;;;;;;;0.60;0.60;;;5.80;99.90;;;;;;5085284;28;20070;-30
2023/11/11 05:35:20;;;;;;;0.80;0.80;;;5.80;99.90;;;;;;5082051;28;20048;-31
2023/11/11 05:37:45;;;;;;;0.60;0.60;;;5.80;99.90;;;;;;5085667;28;20032;-30
2023/11/11 05:40:17;;;;;;;0.70;0.70;;;5.80;99.90;;;;;;5084735;28;20026;-40
2023/11/11 05:42:46;;;;;;;0.70;0.70;;;5.90;99.90;;;;;;5081831;28;20525;-32
2023/11/11 05:45:15;;;;;;;0.60;0.60;;;5.90;99.90;;;;;;5086405;28;20024;-37
2023/11/11 05:47:42;;;;;;;0.77;0.77;;;5.90;99.90;;;;;;5077539;28;20074;-32
2023/11/11 05:50:10;;;;;;;0.75;0.75;;;6.00;99.90;;;;;;5082556;28;20020;-33
2023/11/11 05:52:36;;;;;;;0.70;0.70;;;6.00;99.90;;;;;;5080511;28;20037;-33
2023/11/11 05:55:01;;;;;;;0.80;0.80;;;6.00;99.90;;;;;;5084630;28;20413;-39
2023/11/11 05:57:27;;;;;;;0.70;0.70;;;6.00;99.90;;;;;;5086663;28;20035;-41
2023/11/11 05:59:53;;;;;;;0.77;0.70;;;6.00;99.90;;;;;;5087543;28;20031;-39
2023/11/11 06:02:18;;;;;;;1.48;1.48;;;6.00;99.90;;;;;;5076628;28;20115;-41
2023/11/11 06:04:45;;;;;;;0.80;0.80;;;6.00;99.90;;;;;;5085502;28;20039;-38
2023/11/11 06:07:12;;;;;;;1.00;0.90;;;6.00;99.90;;;;;;5079901;28;20097;-41
2023/11/11 06:09:39;;;;;;;0.95;0.95;;;6.00;99.90;;;;;;5081895;28;20036;-41
2023/11/11 06:12:06;;;;;;;0.63;0.63;;;6.10;99.90;;;;;;5083023;28;20041;-31
2023/11/11 06:14:32;;;;;;;0.80;0.80;;;6.00;99.90;;;;;;5085104;28;20111;-32
2023/11/11 06:16:57;;;;;;;0.82;0.82;;;6.00;99.90;;;;;;5095423;28;20120;-30
2023/11/11 06:19:25;;;;;;;0.77;0.77;;;5.90;99.90;;;;;;5081861;28;20157;-30
2023/11/11 06:21:51;;;;;;;1.15;0.75;;;5.90;99.90;;;;;;5083626;28;20385;-30
2023/11/11 06:24:17;;;;;;;0.80;0.80;;;5.90;99.90;;;;;;5083354;28;20392;-30
2023/11/11 06:26:43;;;;;;;0.90;0.90;;;5.90;99.90;;;;;;5086632;28;20115;-31
2023/11/11 06:29:09;;;;;;;0.82;0.70;;;5.90;99.90;;;;;;5083104;28;20442;-30
2023/11/11 06:31:35;;;;;;;0.80;0.80;;;5.90;99.90;;;;;;5085418;28;20130;-31
2023/11/11 06:34:01;;;;;;;0.95;0.95;;;5.80;99.90;;;;;;5083559;28;20040;-33
2023/11/11 06:36:30;;;;;;;1.20;1.00;;;5.80;99.90;;;;;;5081276;28;20033;-31
2023/11/11 06:38:56;;;;;;;1.52;0.80;;;5.80;99.90;;;;;;5095152;28;20032;-31
2023/11/11 06:41:22;;;;;;;0.95;0.90;;;5.90;99.90;;;;;;5087655;28;20378;-30
2023/11/11 06:43:48;;;;;;;1.00;1.00;;;5.90;99.90;;;;;;5086402;28;20488;-37
2023/11/11 06:46:15;;;;;;;1.73;0.68;;;5.90;99.90;;;;;;5083665;28;20032;-31
2023/11/11 06:48:41;;;;;;;0.90;0.90;;;5.90;99.90;;;;;;5083142;28;20035;-34
2023/11/11 06:51:06;;;;;;;1.40;1.30;;;5.90;99.90;;;;;;5085284;28;20548;-35
2023/11/11 06:53:32;;;;;;;1.10;1.10;;;5.90;99.90;;;;;;5086643;28;20024;-30
2023/11/11 06:55:59;;;;;;;1.10;1.00;;;5.90;99.90;;;;;;5080199;28;20035;-31
2023/11/11 06:58:25;;;;;;;0.93;0.93;;;5.90;99.90;;;;;;5083230;28;20028;-30
2023/11/11 07:00:51;;;;;;;1.00;0.90;;;5.90;99.90;;;;;;5083230;27;20032;-38
2023/11/11 07:03:17;;;;;;;0.90;0.90;;;5.90;99.90;;;;;;5109745;27;20024;-40
2023/11/11 07:05:43;;;;;;;0.80;0.80;;;5.90;99.90;;;;;;5084743;28;20046;-39
2023/11/11 07:08:09;;;;;;;1.05;0.98;;;5.90;99.90;;;;;;5084262;28;20028;-39
2023/11/11 07:10:35;;;;;;;1.10;0.90;;;6.00;99.90;;;;;;5074824;28;20375;-42
2023/11/11 07:13:01;;;;;;;0.90;0.90;;;5.90;99.90;;;;;;5075088;28;20028;-34
2023/11/11 07:15:27;;;;;;;0.90;0.90;;;5.90;99.90;;;;;;5084156;28;20110;-41
2023/11/11 07:17:53;;;;;;;1.17;0.98;;;5.90;99.90;;;;;;5081635;28;20066;-41
2023/11/11 07:20:21;;;;;;;1.00;1.00;;;5.90;99.90;;;;;;5082322;28;20020;-31
2023/11/11 07:22:51;;;;;;;1.13;1.13;;;5.80;99.90;;;;;;5086223;28;20023;-31
2023/11/11 07:25:18;;;;;;;1.13;1.10;;;5.80;99.90;;;;;;5079608;28;20399;-32
2023/11/11 07:27:43;;;;;;;1.40;1.25;;;5.80;99.90;;;;;;5081075;28;20057;-31
2023/11/11 07:30:10;;;;;;;1.33;0.90;;;5.80;99.90;;;;;;5081500;28;20028;-30
2023/11/11 07:32:40;;;;;;;1.00;1.00;;;5.80;99.90;;;;;;5084915;27;20055;-38
2023/11/11 07:35:11;;;;;;;1.42;1.27;;;5.80;99.90;;;;;;5083554;28;20052;-30
2023/11/11 07:37:38;;;;;;;1.55;1.10;;;5.80;99.90;;;;;;5082554;28;20477;-37
2023/11/11 07:40:04;;;;;;;0.90;0.90;;;5.90;99.90;;;;;;5082718;28;20032;-30
2023/11/11 07:42:30;;;;;;;1.50;1.38;;;5.90;99.90;;;;;;5084693;28;20052;-31
2023/11/11 07:44:56;;;;;;;1.60;1.10;;;5.90;99.90;;;;;;5084044;28;20820;-30
2023/11/11 07:47:24;;;;;;;1.10;1.10;;;5.90;99.90;;;;;;5080803;28;20028;-31
2023/11/11 07:49:50;;;;;;;1.17;1.15;;;5.80;99.90;;;;;;5111754;28;20031;-31
2023/11/11 07:52:16;;;;;;;1.27;1.17;;;5.80;99.90;;;;;;5083878;28;20481;-31
2023/11/11 07:54:42;;;;;;;0.88;0.88;;;5.70;99.90;;;;;;5081408;28;20024;-33
2023/11/11 07:57:07;;;;;;;1.40;1.30;;;5.80;99.90;;;;;;5081449;28;20038;-31
2023/11/11 07:59:37;;;;;;;2.20;1.75;;;5.70;99.90;;;;;;5080213;28;21086;-30
2023/11/11 08:02:02;;;;;;;1.33;1.23;;;5.70;99.90;;;;;;5082960;27;20039;-32
2023/11/11 08:04:28;;;;;;;1.83;1.73;;;5.70;99.90;;;;;;5081376;28;20670;-31
2023/11/11 08:06:54;;;;;;;2.78;1.52;;;5.80;99.90;;;;;;5081009;28;20075;-33
2023/11/11 08:09:20;;;;;;;1.42;1.23;;;5.80;99.90;;;;;;5082095;28;20032;-30
2023/11/11 08:11:47;;;;;;;1.15;1.15;;;5.90;99.90;;;;;;5085194;28;20493;-31
2023/11/11 08:14:13;;;;;;;2.15;1.23;;;5.90;99.90;;;;;;5082330;28;20658;-36
2023/11/11 08:16:39;;;;;;;1.88;1.27;;;5.90;99.90;;;;;;5082665;28;20024;-32
2023/11/11 08:19:04;;;;;;;2.10;1.48;;;6.00;99.90;;;;;;5080297;28;20477;-30
2023/11/11 08:21:32;;;;;;;2.10;1.65;;;6.00;99.90;;;;;;5082864;28;20107;-33
2023/11/11 08:24:01;;;;;;;1.08;1.00;;;6.00;99.90;;;;;;5083899;28;20040;-30
2023/11/11 08:26:27;;;;;;;1.33;1.23;;;6.10;99.90;;;;;;5081901;28;20161;-31
2023/11/11 08:28:53;;;;;;;2.38;1.20;;;6.10;99.90;;;;;;5082702;28;20044;-29
2023/11/11 08:31:19;;;;;;;1.15;1.05;;;6.10;99.90;;;;;;5081642;27;20489;-30
2023/11/11 08:33:45;;;;;;;1.00;1.00;;;6.10;99.90;;;;;;5083299;28;20423;-32
2023/11/11 08:36:11;;;;;;;1.27;1.00;;;6.10;99.90;;;;;;5083193;28;20040;-30
2023/11/11 08:38:37;;;;;;;8.27;1.88;;;6.10;99.90;;;;;;5082407;28;20034;-33
2023/11/11 08:41:02;;;;;;;1.35;1.25;;;6.20;99.90;;;;;;5083613;28;20020;-31
2023/11/11 08:43:29;;;;;;;1.00;0.90;;;6.20;99.90;;;;;;5087531;28;20040;-30
2023/11/11 08:45:58;;;;;;;2.25;1.15;;;6.20;99.90;;;;;;5087728;28;20055;-31
2023/11/11 08:48:24;;;;;;;0.90;0.90;;;6.30;99.90;;;;;;5089387;28;20031;-30
2023/11/11 08:50:50;;;;;;;1.15;1.10;;;6.60;99.90;;;;;;5087503;28;20036;-31
2023/11/11 08:53:16;;;;;;;1.63;1.25;;;6.60;99.90;;;;;;5086697;28;20032;-31
2023/11/11 08:55:42;;;;;;;1.25;1.15;;;6.50;99.90;;;;;;5087865;28;20024;-33
2023/11/11 08:58:08;;;;;;;1.75;1.17;;;6.60;99.90;;;;;;5090871;28;20024;-31
2023/11/11 09:00:34;;;;;;;0.93;0.93;;;6.80;99.90;;;;;;5062461;27;20071;-31
2023/11/11 09:03:00;;;;;;;1.08;1.08;;;6.90;99.90;;;;;;5088424;28;20485;-31
2023/11/11 09:05:26;;;;;;;1.23;1.23;;;7.10;99.90;;;;;;5091505;28;20052;-31
2023/11/11 09:07:52;;;;;;;1.63;0.90;;;7.30;99.90;;;;;;5088292;28;20064;-30
2023/11/11 09:10:18;;;;;;;1.08;1.08;;;7.40;99.90;;;;;;5084027;28;20424;-30
2023/11/11 09:12:43;;;;;;;1.10;1.10;;;7.60;99.90;;;;;;5087776;28;20055;-32
2023/11/11 09:15:10;;;;;;;1.00;1.00;;;7.70;99.90;;;;;;5085143;28;20105;-30
2023/11/11 09:17:38;;;;;;;1.35;1.25;;;7.70;99.90;;;;;;5083239;28;20028;-34
2023/11/11 09:20:09;;;;;;;2.13;1.85;;;7.70;99.90;;;;;;5094868;28;20028;-30
2023/11/11 09:22:36;;;;;;;1.00;1.00;;;7.40;99.90;;;;;;5086240;28;20028;-30
2023/11/11 09:25:05;;;;;;;1.08;1.08;;;7.20;99.90;;;;;;5087149;28;20040;-31
2023/11/11 09:27:31;;;;;;;1.20;1.20;;;7.10;99.90;;;;;;5087794;28;20115;-30
2023/11/11 09:29:57;;;;;;;1.10;0.90;;;7.10;99.90;;;;;;5082967;28;20468;-32
2023/11/11 09:32:23;;;;;;;0.98;0.98;;;7.00;99.90;;;;;;5085953;28;20034;-30
2023/11/11 09:34:49;;;;;;;2.75;0.90;;;7.00;99.90;;;;;;5086462;28;20044;-33
2023/11/11 09:37:15;;;;;;;1.00;1.00;;;7.00;99.90;;;;;;5116846;27;20029;-30
2023/11/11 09:39:40;;;;;;;1.00;1.00;;;7.10;99.90;;;;;;5082979;28;20039;-32
2023/11/11 09:42:07;;;;;;;1.63;1.17;;;7.10;99.90;;;;;;5083591;28;20117;-30
2023/11/11 09:44:33;;;;;;;1.83;1.20;;;7.20;99.90;;;;;;5084277;28;20051;-33
2023/11/11 09:47:00;;;;;;;1.30;1.10;;;7.30;99.90;;;;;;5082960;28;20082;-32
2023/11/11 09:49:27;;;;;;;1.52;1.17;;;7.30;99.90;;;;;;5113997;27;20029;-31
2023/11/11 09:51:54;;;;;;;1.38;1.25;;;7.20;99.90;;;;;;5084256;28;20040;-31
2023/11/11 09:54:21;;;;;;;1.00;1.00;;;7.20;99.90;;;;;;5117241;27;20064;-30
2023/11/11 09:56:47;;;;;;;1.00;1.00;;;7.10;99.90;;;;;;5085144;28;20073;-34
2023/11/11 09:59:14;;;;;;;0.90;0.90;;;7.10;99.90;;;;;;5086666;28;20103;-34
2023/11/11 10:01:42;;;;;;;1.40;1.13;;;7.10;99.90;;;;;;5083435;28;20024;-35
2023/11/11 10:04:09;;;;;;;0.98;0.98;;;7.10;99.90;;;;;;5081820;28;20028;-30
2023/11/11 10:06:36;;;;;;;1.85;1.15;;;7.00;99.90;;;;;;5081094;28;20111;-31
2023/11/11 10:09:04;;;;;;;2.50;1.25;;;7.00;99.90;;;;;;5091346;28;20088;-31
2023/11/11 10:11:30;;;;;;;2.17;0.75;;;7.10;99.90;;;;;;5088604;28;20518;-33
2023/11/11 10:13:59;;;;;;;3.08;1.30;;;7.10;99.90;;;;;;5082982;28;20044;-33
2023/11/11 10:16:25;;;;;;;1.20;1.20;;;7.20;99.90;;;;;;5080654;28;20039;-31
2023/11/11 10:18:52;;;;;;;1.20;1.20;;;7.20;99.90;;;;;;5082515;28;20024;-30
2023/11/11 10:21:22;;;;;;;1.98;1.10;;;7.20;99.90;;;;;;5084611;28;20102;-30
2023/11/11 10:23:48;;;;;;;1.30;1.20;;;7.20;99.90;;;;;;5081743;28;20028;-31
2023/11/11 10:26:17;;;;;;;1.50;1.40;;;7.10;99.90;;;;;;5082937;28;20157;-31
2023/11/11 10:28:50;;;;;;;0.90;0.90;;;7.10;99.90;;;;;;5082977;28;20051;-32
2023/11/11 10:31:21;;;;;;;0.90;0.90;;;7.00;99.90;;;;;;5084049;27;20508;-31
2023/11/11 10:33:47;;;;;;;1.30;1.20;;;7.00;99.90;;;;;;5085242;27;20043;-31
2023/11/11 10:36:17;;;;;;;1.20;1.10;;;7.10;99.90;;;;;;5086844;28;20471;-30
2023/11/11 10:38:43;;;;;;;1.27;1.05;;;7.00;99.90;;;;;;5083628;28;20028;-36
2023/11/11 10:41:09;;;;;;;1.20;1.10;;;7.00;99.90;;;;;;5083940;28;20020;-31
2023/11/11 10:43:35;;;;;;;1.02;1.02;;;7.00;99.90;;;;;;5077382;28;20020;-31
2023/11/11 10:46:02;;;;;;;1.42;1.33;;;7.10;99.90;;;;;;5084695;28;20024;-33
2023/11/11 10:48:29;;;;;;;0.80;0.80;;;7.20;99.90;;;;;;5085206;28;20113;-33
2023/11/11 10:50:54;;;;;;;1.30;1.20;;;7.20;99.90;;;;;;5079954;28;20032;-32
2023/11/11 10:53:21;;;;;;;1.10;0.98;;;7.20;99.90;;;;;;5085339;28;20027;-33
2023/11/11 10:55:49;;;;;;;1.08;1.08;;;7.20;99.90;;;;;;5086149;28;20038;-33
2023/11/11 10:58:19;;;;;;;1.20;1.10;;;7.10;99.90;;;;;;5084585;28;20028;-31
2023/11/11 11:00:51;;;;;;;1.17;1.10;;;7.10;99.90;;;;;;5083791;27;20060;-32
2023/11/11 11:03:21;;;;;;;2.28;1.23;;;7.10;99.90;;;;;;5084477;28;20504;-32
2023/11/11 11:05:49;;;;;;;0.70;0.70;;;7.10;99.90;;;;;;5083419;28;20028;-30
2023/11/11 11:08:29;;;;;;;1.05;1.05;;;7.20;99.90;;;;;;5084714;28;20028;-31
2023/11/11 11:11:15;;;;;;;1.02;1.02;;;7.20;99.90;;;;;;5086544;28;20047;-31
2023/11/11 11:13:43;;;;;;;1.00;1.00;;;7.20;99.90;;;;;;5085859;28;20032;-34
2023/11/11 11:16:16;;;;;;;1.03;1.03;;;7.20;99.90;;;;;;5085283;28;20659;-30
2023/11/11 11:18:41;;;;;;;1.15;1.13;;;7.20;99.90;;;;;;5085309;28;20492;-35
2023/11/11 11:21:08;;;;;;;1.63;1.17;;;7.20;99.90;;;;;;5085173;28;20035;-30
2023/11/11 11:23:37;;;;;;;3.38;1.30;;;7.20;99.90;;;;;;5086650;28;20020;-30
2023/11/11 11:26:03;;;;;;;;;;;7.20;99.90;;;;;;5084700;28;20464;-29
2023/11/11 11:28:29;;;;;;;1.20;1.20;;;7.20;99.90;;;;;;5083939;28;19970;-33
2023/11/11 11:31:03;;;;;;;1.27;1.17;;;7.30;99.90;;;;;;5084673;27;20516;-30
2023/11/11 11:33:33;;;;;;;1.05;1.00;;;7.30;99.90;;;;;;5082364;28;20458;-34
2023/11/11 11:36:05;;;;;;;1.45;1.33;;;7.40;99.90;;;;;;5081329;28;20041;-31
2023/11/11 11:38:33;;;;;;;1.10;1.10;;;7.50;99.90;;;;;;5084274;28;20032;-29
2023/11/11 11:41:13;;;;;;;3.72;1.58;;;7.70;99.90;;;;;;5080257;28;20028;-33
2023/11/11 11:43:41;;;;;;;1.40;1.30;;;7.80;99.90;;;;;;5082389;28;20107;-30
2023/11/11 11:46:07;;;;;;;1.27;1.17;;;7.90;99.90;;;;;;5084891;28;20028;-30
2023/11/11 11:48:37;;;;;;;1.40;1.40;;;7.90;99.90;;;;;;5083082;28;20477;-30
2023/11/11 11:51:18;;;;;;;0.98;0.98;;;7.90;99.90;;;;;;5081893;28;20055;-34
2023/11/11 11:53:46;;;;;;;1.80;1.20;;;7.90;99.90;;;;;;5096696;28;20028;-32
2023/11/11 11:56:32;;;;;;;1.27;1.20;;;8.00;99.90;;;;;;5084171;28;20024;-31
2023/11/11 11:59:02;;;;;;;0.68;0.68;;;7.90;99.90;;;;;;5083325;28;20392;-31
2023/11/11 12:01:34;;;;;;;1.50;1.10;;;7.90;99.90;;;;;;5084624;27;20044;-31
2023/11/11 12:04:00;;;;;;;1.13;1.10;;;7.90;99.90;;;;;;5086605;28;20024;-29
2023/11/11 12:06:29;;;;;;;1.00;1.00;;;7.90;99.90;;;;;;5086001;28;20434;-32
2023/11/11 12:08:59;;;;;;;1.20;1.10;;;7.90;99.90;;;;;;5082898;28;20021;-34
2023/11/11 12:11:32;;;;;;;0.95;0.95;;;7.90;99.90;;;;;;5085676;28;20392;-31
2023/11/11 12:14:03;;;;;;;0.80;0.80;;;7.80;99.90;;;;;;5084489;28;20792;-34
2023/11/11 12:16:42;;;;;;;0.90;0.90;;;7.80;99.90;;;;;;5085117;28;20143;-30
2023/11/11 12:19:11;;;;;;;0.80;0.80;;;7.70;99.90;;;;;;5088533;28;20056;-33
2023/11/11 12:21:41;;;;;;;0.90;0.90;;;7.70;99.90;;;;;;5085606;28;20039;-36
2023/11/11 12:24:08;;;;;;;1.40;1.30;;;7.60;99.90;;;;;;5085985;28;20074;-31
2023/11/11 12:26:36;;;;;;;8.07;1.33;;;7.50;99.90;;;;;;5087940;28;20032;-31
2023/11/11 12:29:02;;;;;;;1.75;1.30;;;7.30;99.90;;;;;;5089578;28;20028;-33
2023/11/11 12:31:27;;;;;;;0.90;0.90;;;7.20;99.90;;;;;;5089094;27;20063;-33
2023/11/11 12:33:53;;;;;;;1.45;0.70;;;7.00;99.90;;;;;;5084200;28;20069;-29
2023/11/11 12:36:19;;;;;;;1.83;1.38;;;7.10;99.90;;;;;;5087830;28;20036;-31
2023/11/11 12:38:46;;;;;;;1.10;1.00;;;7.10;99.90;;;;;;5088444;28;20858;-30
2023/11/11 12:41:14;;;;;;;1.00;1.00;;;7.10;99.90;;;;;;5087759;28;20036;-29
2023/11/11 12:43:40;;;;;;;1.07;1.07;;;7.10;99.90;;;;;;5079744;28;20031;-35
2023/11/11 12:46:13;;;;;;;0.60;0.60;;;7.20;99.90;;;;;;5086822;28;20266;-31
2023/11/11 12:48:39;;;;;;;0.90;0.90;;;7.30;99.90;;;;;;5086709;28;20072;-32
2023/11/11 12:51:28;;;;;;;1.02;1.02;;;7.20;99.90;;;;;;5087093;28;20056;-32
2023/11/11 12:53:55;;;;;;;0.90;0.90;;;7.30;99.90;;;;;;5083981;28;21031;-30
2023/11/11 12:56:21;;;;;;;1.10;1.10;;;7.40;99.90;;;;;;5088440;28;20389;-30